Hovedside
METAR-TAF:

METAR-TAF

Lufthavner :

Joensuu lufthavn

Joensuu, Finland

breddegrad: 62-40N, lengdegrad: 029-38E, høyde over havet: 119 m

Gjeldene værobservasjon

Denne rapporten ble laget for 33 minutter siden, klokken 19:20 UTC
Vind 5 kt fra Sør-sørøst, skiftende mellom Sørøst og Sør
Temperatur 18°C
Luftfuktighet 77%
Trykk 1018 hPa
Sikt 10 km eller mer
ingen skyer under 1500 m og ingen bygeskyer

METAR: EFJO 161920Z 15005KT 130V190 CAVOK 18/14 Q1018

Tid: 22:53 (19:53 UTC)

Varsel

Denne rapporten ble laget for 2 timer og 23 minutter siden, klokken 17:30 UTC
Varsel gyldig fra 16. klokken 18 UTC til 16. klokken 23 UTC
Vind 3 kt fra Sør-sørøst
Sikt 10 km eller mer
Få skyer i en høyde av 3500 ft

TAF: EFJO 161730Z 1618/1623 15003KT 9999 FEW035

Værobservasjoner og værvarsel for over 4000 flyplasser (METAR- og TAF-rapporter).

Tilgjengelige stasjoner er representert av de røde og gule prikkene på kartet.

Hold musepekeren over prikken for å se navnet på stasjonen.

Klikk så for å se værobservasjoner og -varsler.

For å forandre kartet kan du klikke på den grønne knappen med svart kryss for å zoome inn, på den grønne knappen med strek for å zoome ut, eller på de grønne pilene for å se tilstøtende kart.


METAR-TAF: